createdAt,value
2023-05-19T00:02:26.304Z,98601.38
2023-05-19T00:04:53.444Z,98589.72
2023-05-19T00:07:26.764Z,98594.41
2023-05-19T00:09:53.826Z,98580.13
2023-05-19T00:12:20.834Z,98572.38
2023-05-19T00:14:50.810Z,98576.31
2023-05-19T00:17:17.714Z,98570.34
2023-05-19T00:19:45.345Z,98569.28
2023-05-19T00:22:12.221Z,98555.28
2023-05-19T00:24:38.948Z,98561.00
2023-05-19T00:27:05.939Z,98548.03
2023-05-19T00:29:32.778Z,98546.47
2023-05-19T00:31:59.606Z,98540.53
2023-05-19T00:34:26.394Z,98532.22
2023-05-19T00:36:53.363Z,98520.31
2023-05-19T00:39:20.078Z,98515.91
2023-05-19T00:41:46.804Z,98521.06
2023-05-19T00:44:13.629Z,98518.50
2023-05-19T00:46:41.660Z,98504.78
2023-05-19T00:49:08.569Z,98503.72
2023-05-19T00:51:36.167Z,98487.66
2023-05-19T00:54:03.616Z,98476.50
2023-05-19T00:56:31.420Z,98468.47
2023-05-19T00:59:01.005Z,98464.06
2023-05-19T01:01:28.114Z,98457.38
2023-05-19T01:03:59.308Z,98465.63
2023-05-19T01:06:28.048Z,98452.16
2023-05-19T01:08:54.799Z,98456.31
2023-05-19T01:11:21.832Z,98458.91
2023-05-19T01:13:49.020Z,98465.13
2023-05-19T01:16:26.750Z,98449.03
2023-05-19T01:19:04.898Z,98457.09
2023-05-19T01:22:02.535Z,98453.72
2023-05-19T01:24:45.361Z,98452.16
2023-05-19T01:27:35.101Z,98452.41
2023-05-19T01:30:31.047Z,98461.72
2023-05-19T01:33:01.643Z,98456.28
2023-05-19T01:35:29.460Z,98444.09
2023-05-19T01:38:00.095Z,98449.81
2023-05-19T01:40:28.283Z,98450.34
2023-05-19T01:42:58.024Z,98433.25
2023-05-19T01:45:27.959Z,98423.38
2023-05-19T01:47:58.273Z,98412.78
2023-05-19T01:50:25.588Z,98417.44
2023-05-19T01:52:52.701Z,98422.63
2023-05-19T01:55:21.383Z,98411.25
2023-05-19T01:58:14.255Z,98401.16
2023-05-19T02:01:01.332Z,98394.16
2023-05-19T02:03:50.255Z,98397.50
2023-05-19T02:06:54.067Z,98392.31
2023-05-19T02:09:30.666Z,98384.53
2023-05-19T02:12:19.425Z,98386.13
2023-05-19T02:14:50.916Z,98385.81
2023-05-19T02:17:20.484Z,98384.00
2023-05-19T02:19:47.402Z,98374.44
2023-05-19T02:22:15.102Z,98375.44
2023-05-19T02:24:41.838Z,98372.81
2023-05-19T02:27:08.577Z,98374.13
2023-05-19T02:29:35.350Z,98368.72
2023-05-19T02:32:02.424Z,98358.59
2023-05-19T02:34:29.330Z,98346.97
2023-05-19T02:36:56.786Z,98341.78
2023-05-19T02:39:23.503Z,98334.56
2023-05-19T02:41:50.473Z,98339.22
2023-05-19T02:44:17.261Z,98352.41
2023-05-19T02:46:44.175Z,98338.41
2023-05-19T02:49:11.591Z,98329.88
2023-05-19T02:51:39.245Z,98328.34
2023-05-19T02:54:06.294Z,98322.09
2023-05-19T02:56:33.047Z,98314.31
2023-05-19T02:58:59.803Z,98307.34
2023-05-19T03:01:26.577Z,98302.47
2023-05-19T03:03:53.501Z,98304.56
2023-05-19T03:06:20.311Z,98305.56
2023-05-19T03:08:47.067Z,98307.88
2023-05-19T03:11:13.807Z,98297.03
2023-05-19T03:13:40.518Z,98292.88
2023-05-19T03:16:08.498Z,98294.66
2023-05-19T03:18:35.543Z,98290.00
2023-05-19T03:21:02.390Z,98286.59
2023-05-19T03:23:29.075Z,98279.91
2023-05-19T03:25:56.467Z,98278.63
2023-05-19T03:28:23.669Z,98266.50
2023-05-19T03:30:51.042Z,98272.16
2023-05-19T03:33:21.360Z,98264.16
2023-05-19T03:35:48.556Z,98266.19
2023-05-19T03:38:16.280Z,98268.78
2023-05-19T03:40:50.730Z,98261.31
2023-05-19T03:43:18.031Z,98265.16
2023-05-19T03:45:49.775Z,98259.72
2023-05-19T03:48:35.075Z,98254.03
2023-05-19T03:51:20.293Z,98254.53
2023-05-19T03:53:49.567Z,98255.31
2023-05-19T03:56:18.265Z,98231.31
2023-05-19T03:58:47.128Z,98245.97
2023-05-19T04:01:14.936Z,98240.81
2023-05-19T04:03:41.965Z,98241.34
2023-05-19T04:06:09.061Z,98249.63
2023-05-19T04:08:35.912Z,98240.56
2023-05-19T04:11:02.744Z,98231.81
2023-05-19T04:13:33.060Z,98229.50
2023-05-19T04:16:00.160Z,98247.06
2023-05-19T04:18:28.950Z,98243.72
2023-05-19T04:20:56.001Z,98242.41
2023-05-19T04:23:22.791Z,98224.91
2023-05-19T04:25:49.980Z,98238.09
2023-05-19T04:28:16.760Z,98233.19
2023-05-19T04:30:46.769Z,98234.50
2023-05-19T04:33:13.976Z,98236.34
2023-05-19T04:35:44.024Z,98236.03
2023-05-19T04:38:12.362Z,98237.63
2023-05-19T04:40:40.716Z,98268.91
2023-05-19T04:43:09.656Z,98283.91
2023-05-19T04:45:37.847Z,98290.09
2023-05-19T04:48:05.714Z,98301.25
2023-05-19T04:50:33.069Z,98322.22
2023-05-19T04:53:00.660Z,98326.38
2023-05-19T04:55:27.904Z,98306.44
2023-05-19T04:57:54.756Z,98313.69
2023-05-19T05:00:22.422Z,98325.31
2023-05-19T05:02:57.828Z,98343.72
2023-05-19T05:05:26.734Z,98314.47
2023-05-19T05:07:54.301Z,98313.72
2023-05-19T05:10:23.839Z,98318.09
2023-05-19T05:12:51.002Z,98331.28
2023-05-19T05:15:18.496Z,98323.00
2023-05-19T05:17:48.679Z,98341.91
2023-05-19T05:20:16.763Z,98346.03
2023-05-19T05:22:44.077Z,98337.94
2023-05-19T05:25:12.723Z,98358.13
2023-05-19T05:27:39.667Z,98351.59
2023-05-19T05:30:08.849Z,98317.28
2023-05-19T05:32:36.458Z,98294.16
2023-05-19T05:35:08.618Z,98311.47
2023-05-19T05:37:35.523Z,98313.44
2023-05-19T05:40:02.440Z,98355.03
2023-05-19T05:42:31.038Z,98346.69
2023-05-19T05:44:57.793Z,98405.00
2023-05-19T05:47:28.802Z,98408.63
2023-05-19T05:49:56.059Z,98416.03
2023-05-19T05:52:29.410Z,98436.19
2023-05-19T05:54:57.195Z,98458.09
2023-05-19T05:57:24.241Z,98492.25
2023-05-19T05:59:51.063Z,98469.22
2023-05-19T06:02:18.295Z,98471.38
2023-05-19T06:04:45.265Z,98486.13
2023-05-19T06:07:12.383Z,98541.88
2023-05-19T06:09:39.522Z,98550.69
2023-05-19T06:12:07.987Z,98568.00
2023-05-19T06:14:40.117Z,98584.25
2023-05-19T06:17:25.231Z,98573.59
2023-05-19T06:19:53.073Z,98583.16
2023-05-19T06:22:19.838Z,98596.91
2023-05-19T06:24:46.666Z,98625.47
2023-05-19T06:27:13.919Z,98627.13
2023-05-19T06:29:40.754Z,98652.31
2023-05-19T06:32:08.921Z,98660.47
2023-05-19T06:34:35.845Z,98661.75
2023-05-19T06:37:02.703Z,98669.97
2023-05-19T06:39:30.803Z,98667.16
2023-05-19T06:41:57.563Z,98677.38
2023-05-19T06:44:44.326Z,98680.94
2023-05-19T06:47:12.153Z,98718.69
2023-05-19T06:49:39.100Z,98699.88
2023-05-19T06:52:06.490Z,98709.00
2023-05-19T06:54:33.275Z,98726.03
2023-05-19T06:57:00.229Z,98707.41
2023-05-19T06:59:27.188Z,98724.72
2023-05-19T07:01:54.147Z,98728.88
2023-05-19T07:04:21.176Z,98744.19
2023-05-19T07:06:48.053Z,98731.75
2023-05-19T07:09:14.905Z,98739.97
2023-05-19T07:11:42.343Z,98747.19
2023-05-19T07:14:10.614Z,98754.13
2023-05-19T07:16:37.448Z,98742.53
2023-05-19T07:19:05.537Z,98746.00
2023-05-19T07:21:33.440Z,98753.94
2023-05-19T07:24:00.185Z,98746.59
2023-05-19T07:26:28.991Z,98769.38
2023-05-19T07:28:55.855Z,98769.66
2023-05-19T07:31:22.747Z,98768.53
2023-05-19T07:33:49.795Z,98764.88
2023-05-19T07:36:17.201Z,98759.19
2023-05-19T07:38:44.422Z,98767.66
2023-05-19T07:41:11.142Z,98766.38
2023-05-19T07:43:37.908Z,98769.56
2023-05-19T07:46:06.186Z,98768.81
2023-05-19T07:48:33.018Z,98776.13
2023-05-19T07:50:59.851Z,98769.91
2023-05-19T07:53:26.925Z,98768.13
2023-05-19T07:55:53.933Z,98770.56
2023-05-19T07:58:21.219Z,98772.38
2023-05-19T08:00:47.958Z,98783.97
2023-05-19T08:03:17.934Z,98781.31
2023-05-19T08:05:45.844Z,98767.75
2023-05-19T08:08:12.949Z,98775.63
2023-05-19T08:10:39.834Z,98780.50
2023-05-19T08:13:06.649Z,98761.66
2023-05-19T08:15:36.222Z,98780.38
2023-05-19T08:18:03.688Z,98779.88
2023-05-19T08:20:30.839Z,98776.75
2023-05-19T08:22:57.723Z,98785.00
2023-05-19T08:25:24.576Z,98779.16
2023-05-19T08:27:51.519Z,98785.78
2023-05-19T08:30:18.472Z,98783.69
2023-05-19T08:32:45.391Z,98782.47
2023-05-19T08:35:12.215Z,98777.53
2023-05-19T08:37:39.030Z,98776.75
2023-05-19T08:40:06.552Z,98789.38
2023-05-19T08:42:34.152Z,98787.25
2023-05-19T08:45:02.334Z,98777.13
2023-05-19T08:47:29.744Z,98773.66
2023-05-19T08:50:03.684Z,98765.66
2023-05-19T08:52:33.446Z,98767.38
2023-05-19T08:55:13.280Z,98767.81
2023-05-19T08:57:40.910Z,98755.06
2023-05-19T09:00:14.298Z,98752.69
2023-05-19T09:02:50.562Z,98762.19
2023-05-19T09:05:28.389Z,98753.91
2023-05-19T09:07:55.569Z,98749.78
2023-05-19T09:10:22.776Z,98757.03
2023-05-19T09:12:49.984Z,98746.34
2023-05-19T09:15:19.227Z,98740.34
2023-05-19T09:17:48.240Z,98737.09
2023-05-19T09:20:17.673Z,98741.91
2023-05-19T09:22:47.406Z,98748.38
2023-05-19T09:25:24.080Z,98743.38
2023-05-19T09:27:51.196Z,98741.31
2023-05-19T09:30:18.423Z,98732.91
2023-05-19T09:32:47.026Z,98737.50
2023-05-19T09:35:14.156Z,98727.75
2023-05-19T09:37:41.707Z,98725.22
2023-05-19T09:40:11.235Z,98718.22
2023-05-19T09:42:40.044Z,98723.44
2023-05-19T09:45:08.233Z,98722.88
2023-05-19T09:47:37.049Z,98724.94
2023-05-19T09:50:12.133Z,98724.94
2023-05-19T09:52:39.730Z,98727.97
2023-05-19T09:55:10.064Z,98731.94
2023-05-19T09:57:38.050Z,98726.63
2023-05-19T10:00:15.176Z,98723.72
2023-05-19T10:02:44.205Z,98725.59
2023-05-19T10:05:20.476Z,98719.97
2023-05-19T10:07:51.642Z,98721.28
2023-05-19T10:10:22.308Z,98724.41
2023-05-19T10:12:49.859Z,98713.28
2023-05-19T10:15:22.081Z,98717.06
2023-05-19T10:17:50.334Z,98703.25
2023-05-19T10:20:17.952Z,98702.13
2023-05-19T10:22:46.541Z,98712.50
2023-05-19T10:25:18.755Z,98709.34
2023-05-19T10:27:56.614Z,98702.97
2023-05-19T10:30:29.974Z,98688.97
2023-05-19T10:32:57.656Z,98695.16
2023-05-19T10:35:33.999Z,98692.63
2023-05-19T10:38:13.150Z,98682.75
2023-05-19T10:41:04.670Z,98682.81
2023-05-19T10:43:44.500Z,98699.63
2023-05-19T10:46:12.326Z,98690.75
2023-05-19T10:48:44.949Z,98697.22
2023-05-19T10:51:12.445Z,98688.88
2023-05-19T10:53:46.450Z,98692.97
2023-05-19T10:56:34.903Z,98690.00
2023-05-19T10:59:03.388Z,98682.31
2023-05-19T11:01:35.355Z,98681.16
2023-05-19T11:04:07.024Z,98676.66
2023-05-19T11:06:36.533Z,98675.00
2023-05-19T11:09:12.816Z,98681.28
2023-05-19T11:11:53.388Z,98681.03
2023-05-19T11:14:27.293Z,98677.13
2023-05-19T11:16:57.015Z,98678.06
2023-05-19T11:19:37.107Z,98684.75
2023-05-19T11:22:13.487Z,98682.94
2023-05-19T11:24:50.726Z,98687.03
2023-05-19T11:27:33.445Z,98681.66
2023-05-19T11:30:02.591Z,98671.13
2023-05-19T11:32:31.685Z,98681.63
2023-05-19T11:34:58.534Z,98681.63
2023-05-19T11:37:25.648Z,98685.63
2023-05-19T11:39:53.177Z,98670.09
2023-05-19T11:42:20.193Z,98670.50
2023-05-19T11:44:47.169Z,98667.94
2023-05-19T11:47:17.491Z,98660.94
2023-05-19T11:49:55.283Z,98653.16
2023-05-19T11:52:23.344Z,98653.25
2023-05-19T11:54:50.814Z,98654.50
2023-05-19T11:57:17.674Z,98650.84
2023-05-19T11:59:45.899Z,98640.34
2023-05-19T12:02:25.367Z,98647.03
2023-05-19T12:04:53.244Z,98641.84
2023-05-19T12:07:23.545Z,98635.16
2023-05-19T12:09:52.004Z,98632.13
2023-05-19T12:12:23.223Z,98642.00
2023-05-19T12:14:53.536Z,98637.16
2023-05-19T12:17:21.315Z,98637.28
2023-05-19T12:19:49.118Z,98631.97
2023-05-19T12:22:17.090Z,98634.41
2023-05-19T12:24:45.113Z,98629.34
2023-05-19T12:27:17.967Z,98631.38
2023-05-19T12:29:50.397Z,98619.50
2023-05-19T12:32:17.183Z,98611.84
2023-05-19T12:34:44.141Z,98612.28
2023-05-19T12:37:11.533Z,98601.13
2023-05-19T12:39:42.240Z,98616.03
2023-05-19T12:42:10.506Z,98624.69
2023-05-19T12:44:49.003Z,98623.97
2023-05-19T12:47:16.855Z,98619.69
2023-05-19T12:50:06.636Z,98632.38
2023-05-19T12:52:35.765Z,98623.31
2023-05-19T12:57:38.309Z,98613.53
2023-05-19T13:00:28.678Z,98609.53
2023-05-19T13:02:57.239Z,98602.63
2023-05-19T13:05:24.929Z,98607.22
2023-05-19T13:07:55.770Z,98604.28
2023-05-19T13:10:23.284Z,98602.28
2023-05-19T13:12:50.138Z,98603.19
2023-05-19T13:15:17.009Z,98602.84
2023-05-19T13:17:46.599Z,98596.44
2023-05-19T13:20:13.808Z,98598.38
2023-05-19T13:22:40.986Z,98595.72
2023-05-19T13:25:08.385Z,98598.19
2023-05-19T13:27:35.571Z,98598.84
2023-05-19T13:30:02.756Z,98600.72
2023-05-19T13:32:29.663Z,98592.78
2023-05-19T13:34:57.039Z,98592.31
2023-05-19T13:37:23.827Z,98586.31
2023-05-19T13:39:50.708Z,98589.63
2023-05-19T13:42:17.850Z,98580.94
2023-05-19T13:44:47.774Z,98585.25
2023-05-19T13:47:14.664Z,98578.41
2023-05-19T13:49:42.051Z,98574.22
2023-05-19T13:52:09.188Z,98577.66
2023-05-19T13:54:36.147Z,98573.47
2023-05-19T13:57:02.919Z,98568.91
2023-05-19T13:59:29.988Z,98575.66
2023-05-19T14:01:56.834Z,98571.06
2023-05-19T14:04:26.411Z,98559.97
2023-05-19T14:06:53.162Z,98569.56
2023-05-19T14:09:20.382Z,98569.47
2023-05-19T14:11:48.140Z,98575.53
2023-05-19T14:14:14.870Z,98563.66
2023-05-19T14:16:41.960Z,98570.34
2023-05-19T14:19:08.992Z,98572.94
2023-05-19T14:21:36.997Z,98565.09
2023-05-19T14:24:04.040Z,98569.84
2023-05-19T14:26:31.135Z,98571.03
2023-05-19T14:28:58.182Z,98565.22
2023-05-19T14:31:25.051Z,98568.28
2023-05-19T14:33:52.655Z,98570.72
2023-05-19T14:36:19.524Z,98560.81
2023-05-19T14:38:46.312Z,98568.47
2023-05-19T14:41:13.252Z,98557.19
2023-05-19T14:43:42.329Z,98556.19
2023-05-19T14:46:09.247Z,98546.41
2023-05-19T14:48:36.000Z,98544.84
2023-05-19T14:51:02.847Z,98553.88
2023-05-19T14:53:29.752Z,98545.09
2023-05-19T14:55:56.445Z,98547.91
2023-05-19T14:58:28.823Z,98543.56
2023-05-19T15:00:58.179Z,98551.59
2023-05-19T15:03:25.099Z,98541.28
2023-05-19T15:05:52.015Z,98542.56
2023-05-19T15:08:18.820Z,98538.44
2023-05-19T15:10:49.420Z,98545.50
2023-05-19T15:13:17.258Z,98544.31
2023-05-19T15:15:44.327Z,98542.09
2023-05-19T15:18:11.657Z,98540.06
2023-05-19T15:20:38.447Z,98539.81
2023-05-19T15:23:05.202Z,98536.22
2023-05-19T15:25:32.032Z,98529.81
2023-05-19T15:27:58.739Z,98536.72
2023-05-19T15:30:25.580Z,98523.22
2023-05-19T15:32:52.324Z,98534.88
2023-05-19T15:35:19.084Z,98535.41
2023-05-19T15:37:46.000Z,98527.22
2023-05-19T15:40:13.037Z,98530.00
2023-05-19T15:42:39.827Z,98522.31
2023-05-19T15:45:08.285Z,98522.03
2023-05-19T15:47:35.200Z,98529.69
2023-05-19T15:50:02.131Z,98521.00
2023-05-19T15:52:29.383Z,98526.41
2023-05-19T15:54:59.231Z,98514.75
2023-05-19T15:57:26.100Z,98523.97
2023-05-19T15:59:52.800Z,98524.19
2023-05-19T16:02:19.707Z,98520.16
2023-05-19T16:04:46.507Z,98517.91
2023-05-19T16:07:23.941Z,98518.91
2023-05-19T16:09:50.678Z,98510.66
2023-05-19T16:12:17.374Z,98509.59
2023-05-19T16:14:44.122Z,98515.44
2023-05-19T16:17:11.956Z,98515.13
2023-05-19T16:19:38.794Z,98504.44
2023-05-19T16:22:05.789Z,98503.97
2023-05-19T16:24:32.614Z,98503.84
2023-05-19T16:26:59.402Z,98496.16
2023-05-19T16:29:26.129Z,98504.00
2023-05-19T16:31:52.933Z,98504.66
2023-05-19T16:34:19.712Z,98505.16
2023-05-19T16:36:46.417Z,98501.44
2023-05-19T16:39:13.547Z,98492.63
2023-05-19T16:41:40.349Z,98490.38
2023-05-19T16:44:07.119Z,98484.03
2023-05-19T16:46:34.351Z,98485.56
2023-05-19T16:49:01.188Z,98479.84
2023-05-19T16:51:27.919Z,98490.00
2023-05-19T16:53:54.774Z,98495.53
2023-05-19T16:56:22.171Z,98493.56
2023-05-19T16:58:49.575Z,98488.75
2023-05-19T17:01:17.556Z,98488.22
2023-05-19T17:03:44.357Z,98494.69
2023-05-19T17:06:11.083Z,98492.72
2023-05-19T17:08:37.934Z,98490.50
2023-05-19T17:11:06.530Z,98494.44
2023-05-19T17:13:41.693Z,98499.81
2023-05-19T17:16:09.133Z,98492.47
2023-05-19T17:18:35.981Z,98505.31
2023-05-19T17:21:05.044Z,98504.97
2023-05-19T17:23:32.521Z,98508.41
2023-05-19T17:25:59.359Z,98505.78
2023-05-19T17:28:26.259Z,98514.66
2023-05-19T17:30:53.193Z,98517.44
2023-05-19T17:33:20.054Z,98515.28
2023-05-19T17:35:46.899Z,98514.16
2023-05-19T17:38:13.688Z,98510.50
2023-05-19T17:40:42.075Z,98512.22
2023-05-19T17:43:09.221Z,98510.28
2023-05-19T17:45:36.140Z,98510.50
2023-05-19T17:48:03.046Z,98504.41
2023-05-19T17:50:29.826Z,98505.16
2023-05-19T17:52:56.837Z,98500.63
2023-05-19T17:55:28.191Z,98502.66
2023-05-19T17:57:55.246Z,98498.97
2023-05-19T18:00:22.669Z,98503.53
2023-05-19T18:02:49.794Z,98506.28
2023-05-19T18:05:17.268Z,98499.03
2023-05-19T18:07:44.395Z,98497.75
2023-05-19T18:10:11.991Z,98501.19
2023-05-19T18:12:38.874Z,98506.34
2023-05-19T18:15:06.232Z,98501.84
2023-05-19T18:17:33.097Z,98498.50
2023-05-19T18:19:59.793Z,98493.44
2023-05-19T18:22:26.642Z,98500.88
2023-05-19T18:24:53.492Z,98500.28
2023-05-19T18:27:20.403Z,98507.03
2023-05-19T18:29:48.555Z,98505.84
2023-05-19T18:32:17.059Z,98502.63
2023-05-19T18:34:44.102Z,98516.66
2023-05-19T18:37:11.069Z,98512.53
2023-05-19T18:39:37.841Z,98511.47
2023-05-19T18:42:04.858Z,98502.13
2023-05-19T18:44:34.027Z,98506.47
2023-05-19T18:47:01.300Z,98501.56
2023-05-19T18:49:28.114Z,98498.94
2023-05-19T18:51:54.822Z,98492.22
2023-05-19T18:54:22.031Z,98514.53
2023-05-19T18:56:48.878Z,98517.03
2023-05-19T18:59:15.650Z,98504.59
2023-05-19T19:01:43.004Z,98523.22
2023-05-19T19:04:10.030Z,98523.38
2023-05-19T19:06:36.802Z,98517.28
2023-05-19T19:09:03.758Z,98518.69
2023-05-19T19:11:30.548Z,98510.66
2023-05-19T19:13:57.225Z,98509.88
2023-05-19T19:16:24.094Z,98518.34
2023-05-19T19:18:51.077Z,98522.84
2023-05-19T19:21:20.049Z,98512.81
2023-05-19T19:23:46.965Z,98517.44
2023-05-19T19:26:13.682Z,98511.25
2023-05-19T19:28:40.634Z,98509.56
2023-05-19T19:31:07.497Z,98506.16
2023-05-19T19:33:34.433Z,98507.41
2023-05-19T19:36:01.532Z,98503.19
2023-05-19T19:38:28.439Z,98502.25
2023-05-19T19:40:55.199Z,98493.72
2023-05-19T19:43:21.919Z,98501.25
2023-05-19T19:45:48.866Z,98511.56
2023-05-19T19:48:15.627Z,98506.81
2023-05-19T19:50:42.389Z,98503.81
2023-05-19T19:53:09.207Z,98501.16
2023-05-19T19:55:36.126Z,98494.28
2023-05-19T19:58:02.999Z,98509.53
2023-05-19T20:00:29.870Z,98503.00
2023-05-19T20:03:05.225Z,98500.81
2023-05-19T20:05:32.821Z,98507.00
2023-05-19T20:07:59.756Z,98498.31
2023-05-19T20:10:26.503Z,98499.00
2023-05-19T20:12:53.410Z,98508.06
2023-05-19T20:15:20.350Z,98500.94
2023-05-19T20:17:47.066Z,98501.84
2023-05-19T20:20:14.219Z,98500.28
2023-05-19T20:22:41.000Z,98494.97
2023-05-19T20:25:08.149Z,98496.66
2023-05-19T20:27:34.972Z,98496.34
2023-05-19T20:30:01.722Z,98495.31
2023-05-19T20:32:28.496Z,98492.84
2023-05-19T20:34:55.359Z,98490.75
2023-05-19T20:37:22.577Z,98478.00
2023-05-19T20:39:49.410Z,98479.66
2023-05-19T20:42:16.217Z,98464.69
2023-05-19T20:44:43.069Z,98463.53
2023-05-19T20:47:10.745Z,98445.72
2023-05-19T20:49:37.478Z,98445.59
2023-05-19T20:52:04.464Z,98451.28
2023-05-19T20:54:31.293Z,98461.44
2023-05-19T20:56:57.975Z,98461.38
2023-05-19T20:59:24.785Z,98464.53
2023-05-19T21:01:51.543Z,98481.47
2023-05-19T21:04:18.320Z,98471.81
2023-05-19T21:06:45.209Z,98475.09
2023-05-19T21:09:12.217Z,98465.72
2023-05-19T21:11:38.938Z,98466.69
2023-05-19T21:14:07.770Z,98465.16
2023-05-19T21:16:34.671Z,98479.53
2023-05-19T21:19:02.002Z,98476.00
2023-05-19T21:21:28.833Z,98486.03
2023-05-19T21:23:55.516Z,98495.88
2023-05-19T21:26:22.267Z,98492.50
2023-05-19T21:28:49.169Z,98496.53
2023-05-19T21:31:15.967Z,98486.88
2023-05-19T21:33:43.155Z,98486.88
2023-05-19T21:36:10.084Z,98496.06
2023-05-19T21:38:36.794Z,98481.66
2023-05-19T21:41:03.507Z,98488.03
2023-05-19T21:43:30.280Z,98478.50
2023-05-19T21:45:58.236Z,98483.22
2023-05-19T21:48:25.096Z,98492.78
2023-05-19T21:50:55.603Z,98505.53
2023-05-19T21:53:22.439Z,98496.28
2023-05-19T21:55:49.252Z,98505.75
2023-05-19T21:58:16.357Z,98499.06
2023-05-19T22:00:48.824Z,98491.25
2023-05-19T22:03:15.859Z,98495.09
2023-05-19T22:05:42.654Z,98494.69
2023-05-19T22:08:09.455Z,98492.84
2023-05-19T22:10:37.431Z,98497.03
2023-05-19T22:13:04.257Z,98496.16
2023-05-19T22:15:31.114Z,98491.53
2023-05-19T22:17:57.879Z,98501.00
2023-05-19T22:20:24.697Z,98480.59
2023-05-19T22:22:51.629Z,98482.44
2023-05-19T22:25:18.406Z,98475.00
2023-05-19T22:27:45.096Z,98463.38
2023-05-19T22:30:12.432Z,98472.75
2023-05-19T22:32:39.225Z,98478.63
2023-05-19T22:35:06.738Z,98482.41
2023-05-19T22:37:33.519Z,98478.34
2023-05-19T22:40:00.290Z,98473.41
2023-05-19T22:42:27.233Z,98477.00
2023-05-19T22:44:54.060Z,98468.91
2023-05-19T22:47:20.823Z,98455.13
2023-05-19T22:49:48.639Z,98473.38
2023-05-19T22:52:15.396Z,98479.66
2023-05-19T22:54:42.170Z,98463.72
2023-05-19T22:57:09.102Z,98447.63
2023-05-19T22:59:38.328Z,98449.53
2023-05-19T23:02:06.052Z,98449.06
2023-05-19T23:04:33.581Z,98454.53
2023-05-19T23:07:01.007Z,98452.41
2023-05-19T23:09:27.915Z,98440.16
2023-05-19T23:11:54.816Z,98428.56
2023-05-19T23:14:22.071Z,98429.75
2023-05-19T23:16:48.914Z,98437.09
2023-05-19T23:19:17.156Z,98433.47
2023-05-19T23:21:44.838Z,98431.13
2023-05-19T23:24:11.592Z,98424.38
2023-05-19T23:26:38.338Z,98413.28
2023-05-19T23:29:05.236Z,98419.31
2023-05-19T23:31:32.190Z,98405.22
2023-05-19T23:34:01.688Z,98405.84
2023-05-19T23:36:28.441Z,98415.88
2023-05-19T23:38:55.172Z,98409.09
2023-05-19T23:41:21.890Z,98414.31
2023-05-19T23:43:48.659Z,98410.16
2023-05-19T23:46:15.566Z,98398.88
2023-05-19T23:48:42.418Z,98389.97
2023-05-19T23:51:12.095Z,98382.13
2023-05-19T23:53:38.920Z,98380.00
2023-05-19T23:56:06.190Z,98384.19
2023-05-19T23:58:33.138Z,98379.84
